Time;durP1;ratioP1;P1;durP2;ratioP2;P2;SDS_P1;SDS_P2;PMS_P1;PMS_P2;Temp;Humidity;BMP_temperature;BMP_pressure;BME280_temperature;BME280_humidity;BME280_pressure;Samples;Min_cycle;Max_cycle;Signal;HPM_P1;HPM_P2
2021/08/25 00:00:17;;;;;;;;;;;23.10;54.30;;;;;;4360389;32;20038;-39
2021/08/25 00:02:43;;;;;;;;;;;23.10;54.30;;;;;;4360210;32;20422;-40
2021/08/25 00:05:10;;;;;;;;;;;23.10;54.30;;;;;;4360452;32;19949;-38
2021/08/25 00:07:36;;;;;;;;;;;23.10;54.30;;;;;;4345734;32;19978;-38
2021/08/25 00:10:02;;;;;;;;;;;23.10;54.40;;;;;;4359675;32;19989;-39
2021/08/25 00:12:30;;;;;;;;;;;23.10;54.40;;;;;;4358119;32;19964;-38
2021/08/25 00:14:56;;;;;;;;;;;23.10;54.40;;;;;;4345709;32;19949;-38
2021/08/25 00:17:22;;;;;;;;;;;23.10;54.30;;;;;;4359133;32;19965;-38
2021/08/25 00:19:49;;;;;;;;;;;23.20;54.20;;;;;;4358956;32;19968;-37
2021/08/25 00:22:15;;;;;;;;;;;23.10;54.10;;;;;;4359447;32;19969;-38
2021/08/25 00:24:42;;;;;;;;;;;23.10;54.10;;;;;;4358952;32;19981;-38
2021/08/25 00:27:09;;;;;;;;;;;23.10;54.20;;;;;;4359420;32;19961;-39
2021/08/25 00:29:35;;;;;;;;;;;23.10;54.30;;;;;;4333078;32;20464;-38
2021/08/25 00:32:01;;;;;;;;;;;23.10;54.20;;;;;;4358940;32;19992;-38
2021/08/25 00:34:27;;;;;;;;;;;23.00;54.30;;;;;;4357903;32;19961;-39
2021/08/25 00:36:54;;;;;;;;;;;23.10;54.30;;;;;;4359114;32;19954;-39
2021/08/25 00:39:20;;;;;;;;;;;23.10;54.30;;;;;;4359075;32;19957;-39
2021/08/25 00:41:46;;;;;;;;;;;23.10;54.20;;;;;;4359031;32;20437;-38
2021/08/25 00:44:12;;;;;;;;;;;23.10;54.10;;;;;;4358579;32;20365;-39
2021/08/25 00:46:39;;;;;;;;;;;23.20;54.00;;;;;;4359111;32;20021;-39
2021/08/25 00:49:05;;;;;;;;;;;23.20;54.00;;;;;;4358486;32;19969;-39
2021/08/25 00:51:31;;;;;;;;;;;23.20;53.80;;;;;;4371456;32;20479;-39
2021/08/25 00:53:59;;;;;;;;;;;23.20;53.80;;;;;;4371821;32;19977;-39
2021/08/25 00:56:25;;;;;;;;;;;23.20;53.80;;;;;;4371297;32;19973;-40
2021/08/25 00:58:51;;;;;;;;;;;23.20;54.00;;;;;;4370899;32;20512;-38
2021/08/25 01:01:38;;;;;;;;;;;23.20;54.00;;;;;;4371313;32;19993;-39
2021/08/25 01:04:08;;;;;;;;;;;23.20;54.10;;;;;;4371386;32;19966;-39
2021/08/25 01:06:34;;;;;;;;;;;23.10;54.20;;;;;;4359037;32;19962;-40
2021/08/25 01:09:03;;;;;;;;;;;23.10;54.40;;;;;;4371123;32;19985;-38
2021/08/25 01:11:33;;;;;;;;;;;23.00;54.70;;;;;;4370994;32;19962;-38
2021/08/25 01:14:01;;;;;;;;;;;23.00;54.80;;;;;;4371271;32;19972;-39
2021/08/25 01:16:27;;;;;;;;;;;23.00;54.80;;;;;;4370946;32;19961;-39
2021/08/25 01:18:55;;;;;;;;;;;22.90;54.90;;;;;;4364488;32;20096;-39
2021/08/25 01:21:21;;;;;;;;;;;22.90;55.00;;;;;;4369341;32;19950;-38
2021/08/25 01:23:47;;;;;;;;;;;22.80;55.00;;;;;;4358780;32;20001;-39
2021/08/25 01:26:17;;;;;;;;;;;22.80;54.90;;;;;;4356473;32;19977;-39
2021/08/25 01:28:51;;;;;;;;;;;22.80;54.90;;;;;;4358483;32;19953;-38
2021/08/25 01:31:21;;;;;;;;;;;22.70;55.00;;;;;;4358474;32;19957;-39
2021/08/25 01:33:47;;;;;;;;;;;22.70;55.10;;;;;;4358422;32;19961;-39
2021/08/25 01:36:20;;;;;;;;;;;22.80;55.10;;;;;;4344503;32;19950;-38
2021/08/25 01:38:55;;;;;;;;;;;22.80;55.10;;;;;;4358332;32;19969;-37
2021/08/25 01:41:22;;;;;;;;;;;22.70;55.20;;;;;;4358284;32;20351;-38
2021/08/25 01:43:59;;;;;;;;;;;22.70;55.20;;;;;;4358383;32;19965;-37
2021/08/25 01:46:35;;;;;;;;;;;22.80;55.20;;;;;;4358476;32;19982;-38
2021/08/25 01:49:05;;;;;;;;;;;22.80;55.00;;;;;;4358702;32;20000;-38
2021/08/25 01:51:31;;;;;;;;;;;22.80;54.90;;;;;;4358605;32;19962;-38
2021/08/25 01:53:58;;;;;;;;;;;22.70;54.90;;;;;;4344555;32;19978;-39
2021/08/25 01:56:25;;;;;;;;;;;22.70;55.00;;;;;;4358257;32;20013;-38
2021/08/25 01:58:52;;;;;;;;;;;22.70;55.10;;;;;;4358541;32;19977;-38
2021/08/25 02:01:18;;;;;;;;;;;22.80;55.10;;;;;;4344530;32;20038;-38
2021/08/25 02:03:44;;;;;;;;;;;22.70;55.10;;;;;;4358027;32;19957;-37
2021/08/25 02:06:10;;;;;;;;;;;22.70;55.00;;;;;;4356222;32;19950;-38
2021/08/25 02:08:37;;;;;;;;;;;22.80;55.00;;;;;;4358219;32;20064;-38
2021/08/25 02:11:03;;;;;;;;;;;22.70;54.90;;;;;;4344226;32;20377;-37
2021/08/25 02:13:29;;;;;;;;;;;22.70;54.90;;;;;;4358100;32;20442;-39
2021/08/25 02:15:55;;;;;;;;;;;22.70;55.00;;;;;;4358093;32;20406;-39
2021/08/25 02:18:21;;;;;;;;;;;22.60;55.10;;;;;;4357675;32;20407;-38
2021/08/25 02:20:48;;;;;;;;;;;22.70;55.20;;;;;;4358208;32;19965;-38
2021/08/25 02:23:14;;;;;;;;;;;22.60;55.30;;;;;;4357742;32;20016;-39
2021/08/25 02:25:40;;;;;;;;;;;22.60;55.30;;;;;;4357559;32;19993;-38
2021/08/25 02:28:06;;;;;;;;;;;22.70;55.10;;;;;;4357995;32;19960;-38
2021/08/25 02:30:32;;;;;;;;;;;22.80;55.00;;;;;;4357885;32;19973;-39
2021/08/25 02:32:59;;;;;;;;;;;22.90;54.70;;;;;;4357693;32;19999;-38
2021/08/25 02:35:25;;;;;;;;;;;22.90;54.50;;;;;;4357622;32;19954;-37
2021/08/25 02:37:51;;;;;;;;;;;22.90;54.30;;;;;;4359150;32;19981;-38
2021/08/25 02:40:17;;;;;;;;;;;22.90;54.20;;;;;;4360815;32;19981;-37
2021/08/25 02:42:43;;;;;;;;;;;22.90;54.20;;;;;;4360667;32;19954;-37
2021/08/25 02:45:10;;;;;;;;;;;22.90;54.20;;;;;;4358861;32;19962;-38
2021/08/25 02:47:36;;;;;;;;;;;22.90;54.10;;;;;;4360553;32;19977;-37
2021/08/25 02:50:03;;;;;;;;;;;22.90;54.10;;;;;;4360494;32;20043;-38
2021/08/25 02:52:30;;;;;;;;;;;22.90;54.20;;;;;;4360822;32;20358;-37
2021/08/25 02:54:56;;;;;;;;;;;22.90;54.20;;;;;;4359205;32;19968;-38
2021/08/25 02:57:22;;;;;;;;;;;22.90;54.10;;;;;;4360327;32;20054;-39
2021/08/25 02:59:48;;;;;;;;;;;23.00;53.90;;;;;;4360425;32;19961;-36
2021/08/25 03:02:14;;;;;;;;;;;23.00;53.70;;;;;;4360267;32;19992;-37
2021/08/25 03:04:40;;;;;;;;;;;23.00;53.70;;;;;;4360291;32;20339;-38
2021/08/25 03:07:07;;;;;;;;;;;23.00;53.70;;;;;;4360810;32;19978;-38
2021/08/25 03:09:33;;;;;;;;;;;23.00;53.70;;;;;;4360186;32;20410;-37
2021/08/25 03:11:59;;;;;;;;;;;22.90;54.00;;;;;;4359744;32;19984;-38
2021/08/25 03:14:25;;;;;;;;;;;22.80;54.10;;;;;;4360196;32;19982;-37
2021/08/25 03:16:51;;;;;;;;;;;22.90;54.10;;;;;;4360110;32;20401;-37
2021/08/25 03:19:17;;;;;;;;;;;22.90;53.90;;;;;;4370605;32;20057;-37
2021/08/25 03:21:44;;;;;;;;;;;23.00;53.70;;;;;;4374919;32;20476;-39
2021/08/25 03:24:10;;;;;;;;;;;23.00;53.60;;;;;;4374723;32;19953;-37
2021/08/25 03:26:36;;;;;;;;;;;23.10;53.30;;;;;;4375014;32;20068;-36
2021/08/25 03:29:02;;;;;;;;;;;23.30;52.80;;;;;;4361077;32;20381;-39
2021/08/25 03:31:29;;;;;;;;;;;23.40;52.30;;;;;;4354548;32;19953;-39
2021/08/25 03:33:55;;;;;;;;;;;23.40;52.10;;;;;;4359947;32;19962;-39
2021/08/25 03:36:21;;;;;;;;;;;23.40;52.00;;;;;;4359669;32;20092;-38
2021/08/25 03:38:47;;;;;;;;;;;23.50;51.80;;;;;;4359488;32;20406;-38
2021/08/25 03:41:13;;;;;;;;;;;23.60;51.60;;;;;;4359700;32;19988;-39
2021/08/25 03:43:40;;;;;;;;;;;23.60;51.50;;;;;;4359567;32;20426;-39
2021/08/25 03:46:06;;;;;;;;;;;23.60;51.50;;;;;;4359560;32;19966;-38
2021/08/25 03:48:33;;;;;;;;;;;23.50;51.30;;;;;;4359373;32;19986;-37
2021/08/25 03:51:00;;;;;;;;;;;23.60;51.20;;;;;;4359646;32;19969;-39
2021/08/25 03:53:26;;;;;;;;;;;23.70;50.90;;;;;;4360006;32;19961;-39
2021/08/25 03:55:52;;;;;;;;;;;23.70;51.30;;;;;;4359600;32;20033;-39
2021/08/25 03:58:18;;;;;;;;;;;23.80;50.40;;;;;;4359721;32;19962;-38
2021/08/25 04:00:44;;;;;;;;;;;23.80;50.60;;;;;;4359388;32;19988;-39
2021/08/25 04:03:11;;;;;;;;;;;23.80;50.50;;;;;;4359445;32;20030;-38
2021/08/25 04:05:37;;;;;;;;;;;23.90;50.20;;;;;;4359557;32;19958;-39
2021/08/25 04:08:03;;;;;;;;;;;23.90;50.00;;;;;;4359122;32;20000;-38
2021/08/25 04:10:29;;;;;;;;;;;24.00;49.70;;;;;;4359289;32;20363;-39
2021/08/25 04:12:57;;;;;;;;;;;24.20;49.40;;;;;;4359171;32;19970;-39
2021/08/25 04:15:23;;;;;;;;;;;24.40;48.80;;;;;;4359332;32;20395;-38
2021/08/25 04:17:49;;;;;;;;;;;24.60;48.20;;;;;;4359201;32;19962;-38
2021/08/25 04:20:16;;;;;;;;;;;24.70;47.70;;;;;;4359695;32;20590;-39
2021/08/25 04:22:42;;;;;;;;;;;24.90;47.20;;;;;;4359624;32;20001;-39
2021/08/25 04:25:09;;;;;;;;;;;25.10;46.70;;;;;;4359326;32;20058;-38
2021/08/25 04:27:35;;;;;;;;;;;25.20;46.00;;;;;;4359294;32;20074;-39
2021/08/25 04:30:01;;;;;;;;;;;25.20;45.80;;;;;;4358787;32;19956;-39
2021/08/25 04:32:27;;;;;;;;;;;25.30;45.70;;;;;;4358879;32;19953;-39
2021/08/25 04:34:53;;;;;;;;;;;25.40;45.40;;;;;;4359058;32;19977;-39
2021/08/25 04:37:19;;;;;;;;;;;25.50;45.00;;;;;;4358646;32;19965;-38
2021/08/25 04:39:46;;;;;;;;;;;25.50;44.70;;;;;;4356579;32;19965;-39
2021/08/25 04:42:12;;;;;;;;;;;25.60;44.30;;;;;;4356432;32;20053;-39
2021/08/25 04:44:38;;;;;;;;;;;25.60;44.40;;;;;;4344236;32;19972;-40
2021/08/25 04:47:04;;;;;;;;;;;25.70;44.40;;;;;;4356134;32;20488;-40
2021/08/25 04:49:30;;;;;;;;;;;25.80;43.90;;;;;;4356601;32;20112;-39
2021/08/25 04:51:57;;;;;;;;;;;25.80;43.40;;;;;;4356429;32;19977;-39
2021/08/25 04:54:23;;;;;;;;;;;25.90;43.30;;;;;;4356015;32;20534;-39
2021/08/25 04:56:50;;;;;;;;;;;26.00;43.10;;;;;;4355986;32;19989;-39
2021/08/25 04:59:16;;;;;;;;;;;26.10;42.90;;;;;;4356216;32;19962;-39
2021/08/25 05:01:42;;;;;;;;;;;26.20;42.70;;;;;;4356690;32;20054;-39
2021/08/25 05:04:08;;;;;;;;;;;26.40;42.70;;;;;;4355854;32;19961;-39
2021/08/25 05:06:34;;;;;;;;;;;26.50;42.40;;;;;;4356099;32;20144;-39
2021/08/25 05:09:01;;;;;;;;;;;26.60;42.00;;;;;;4356587;32;20437;-39
2021/08/25 05:11:27;;;;;;;;;;;26.70;41.90;;;;;;4356316;32;19988;-38
2021/08/25 05:13:53;;;;;;;;;;;26.80;41.80;;;;;;4356026;32;20030;-39
2021/08/25 05:16:19;;;;;;;;;;;26.90;41.40;;;;;;4356353;32;19988;-40
2021/08/25 05:18:45;;;;;;;;;;;26.90;41.50;;;;;;4365802;32;19961;-39
2021/08/25 05:21:12;;;;;;;;;;;27.00;41.30;;;;;;4373676;32;19973;-38
2021/08/25 05:23:38;;;;;;;;;;;27.00;41.30;;;;;;4373361;32;19949;-39
2021/08/25 05:26:06;;;;;;;;;;;27.10;41.40;;;;;;4373081;32;19968;-39
2021/08/25 05:28:33;;;;;;;;;;;27.20;41.00;;;;;;4373114;32;20074;-39
2021/08/25 05:30:59;;;;;;;;;;;27.30;40.60;;;;;;4370264;32;20390;-38
2021/08/25 05:33:25;;;;;;;;;;;27.40;40.10;;;;;;4358108;32;20381;-38
2021/08/25 05:35:51;;;;;;;;;;;27.40;40.00;;;;;;4358245;32;19973;-38
2021/08/25 05:38:18;;;;;;;;;;;27.40;39.80;;;;;;4358396;32;19969;-39
2021/08/25 05:40:44;;;;;;;;;;;27.50;39.80;;;;;;4358816;32;19969;-38
2021/08/25 05:43:10;;;;;;;;;;;27.50;39.70;;;;;;4358044;32;19965;-39
2021/08/25 05:45:36;;;;;;;;;;;27.60;39.20;;;;;;4358306;32;19969;-38
2021/08/25 05:48:03;;;;;;;;;;;27.70;39.10;;;;;;4358078;32;20385;-38
2021/08/25 05:50:29;;;;;;;;;;;27.90;38.80;;;;;;4358341;32;20419;-38
2021/08/25 05:52:55;;;;;;;;;;;27.90;38.30;;;;;;4358612;32;19961;-39
2021/08/25 05:55:21;;;;;;;;;;;27.90;38.20;;;;;;4358031;32;19991;-38
2021/08/25 05:57:47;;;;;;;;;;;28.00;38.10;;;;;;4311361;33;19970;-39
2021/08/25 06:00:15;;;;;;;;;;;28.10;38.10;;;;;;4311365;33;20479;-38
2021/08/25 06:02:42;;;;;;;;;;;28.30;37.80;;;;;;4310876;33;19967;-39
2021/08/25 06:05:09;;;;;;;;;;;28.50;37.60;;;;;;4311030;33;19954;-38
2021/08/25 06:07:35;;;;;;;;;;;28.60;37.20;;;;;;4310766;33;19978;-38
2021/08/25 06:10:01;;;;;;;;;;;28.60;37.40;;;;;;4311003;33;20436;-38
2021/08/25 06:12:27;;;;;;;;;;;28.70;37.20;;;;;;4311448;33;19996;-37
2021/08/25 06:14:53;;;;;;;;;;;28.70;37.20;;;;;;4313947;33;19975;-39
2021/08/25 06:17:20;;;;;;;;;;;28.80;37.10;;;;;;4314318;33;20037;-38
2021/08/25 06:19:46;;;;;;;;;;;28.90;37.00;;;;;;4314866;33;20050;-37
2021/08/25 06:22:12;;;;;;;;;;;28.90;36.70;;;;;;4314131;33;20414;-37
2021/08/25 06:24:38;;;;;;;;;;;29.10;36.60;;;;;;4314042;33;19970;-38
2021/08/25 06:27:04;;;;;;;;;;;29.30;36.20;;;;;;4314033;33;19982;-38
2021/08/25 06:29:31;;;;;;;;;;;29.50;35.90;;;;;;4302214;33;19963;-38
2021/08/25 06:31:57;;;;;;;;;;;29.60;35.60;;;;;;4322830;33;20024;-38
2021/08/25 06:34:23;;;;;;;;;;;29.70;35.50;;;;;;4333582;32;19969;-39
2021/08/25 06:36:49;;;;;;;;;;;29.70;35.30;;;;;;4360744;32;20017;-37
2021/08/25 06:39:16;;;;;;;;;;;29.80;35.30;;;;;;4360266;32;20572;-38
2021/08/25 06:41:42;;;;;;;;;;;29.80;35.30;;;;;;4361035;32;19996;-38
2021/08/25 06:44:08;;;;;;;;;;;30.00;35.20;;;;;;4360790;32;20076;-39
2021/08/25 06:46:34;;;;;;;;;;;30.10;34.60;;;;;;4360319;32;19969;-37
2021/08/25 06:49:00;;;;;;;;;;;30.20;34.50;;;;;;4360479;32;20441;-39
2021/08/25 06:51:28;;;;;;;;;;;30.30;34.30;;;;;;4360612;32;19958;-38
2021/08/25 06:53:54;;;;;;;;;;;30.30;34.20;;;;;;4360659;32;19987;-38
2021/08/25 06:56:21;;;;;;;;;;;30.40;34.30;;;;;;4360624;32;20377;-37
2021/08/25 06:58:47;;;;;;;;;;;30.40;33.90;;;;;;4360313;32;20503;-37
2021/08/25 07:01:13;;;;;;;;;;;30.40;34.00;;;;;;4360673;32;19986;-38
2021/08/25 07:03:40;;;;;;;;;;;30.60;33.70;;;;;;4360165;32;19986;-38
2021/08/25 07:06:06;;;;;;;;;;;30.60;33.50;;;;;;4360193;32;20393;-38
2021/08/25 07:08:32;;;;;;;;;;;30.70;33.40;;;;;;4360299;32;20051;-37
2021/08/25 07:10:58;;;;;;;;;;;30.80;33.50;;;;;;4360328;32;20399;-38
2021/08/25 07:13:24;;;;;;;;;;;30.90;33.10;;;;;;4360611;32;20029;-39
2021/08/25 07:15:50;;;;;;;;;;;30.80;33.10;;;;;;4360163;32;19980;-39
2021/08/25 07:18:17;;;;;;;;;;;30.90;33.00;;;;;;4363867;32;20497;-36
2021/08/25 07:20:43;;;;;;;;;;;31.00;33.00;;;;;;4374977;32;19965;-40
2021/08/25 07:23:10;;;;;;;;;;;31.00;32.60;;;;;;4374666;32;19992;-38
2021/08/25 07:25:36;;;;;;;;;;;31.10;32.50;;;;;;4374430;32;19950;-38
2021/08/25 07:28:02;;;;;;;;;;;31.30;32.40;;;;;;4374540;32;19965;-38
2021/08/25 07:30:28;;;;;;;;;;;31.40;31.90;;;;;;4374989;32;19958;-36
2021/08/25 07:32:54;;;;;;;;;;;31.50;31.60;;;;;;4359938;32;20342;-40
2021/08/25 07:35:21;;;;;;;;;;;31.40;31.40;;;;;;4346067;32;20069;-38
2021/08/25 07:37:47;;;;;;;;;;;31.40;31.60;;;;;;4359769;32;20062;-38
2021/08/25 07:40:13;;;;;;;;;;;31.40;31.80;;;;;;4359646;32;19962;-38
2021/08/25 07:42:39;;;;;;;;;;;31.40;31.60;;;;;;4359619;32;19969;-38
2021/08/25 07:45:06;;;;;;;;;;;31.60;31.50;;;;;;4359783;32;20051;-39
2021/08/25 07:47:32;;;;;;;;;;;31.70;31.20;;;;;;4359358;32;19949;-38
2021/08/25 07:49:58;;;;;;;;;;;31.70;30.80;;;;;;4359976;32;19957;-37
2021/08/25 07:52:25;;;;;;;;;;;31.80;30.90;;;;;;4359638;32;19954;-38
2021/08/25 07:54:51;;;;;;;;;;;32.00;30.80;;;;;;4360140;32;20004;-37
2021/08/25 07:57:17;;;;;;;;;;;32.00;30.60;;;;;;4359613;32;20055;-38
2021/08/25 07:59:43;;;;;;;;;;;32.20;30.40;;;;;;4359285;32;19958;-39
2021/08/25 08:02:09;;;;;;;;;;;32.30;30.20;;;;;;4359646;32;20381;-38
2021/08/25 08:04:36;;;;;;;;;;;32.60;30.20;;;;;;4359178;32;20485;-38
2021/08/25 08:07:02;;;;;;;;;;;32.70;30.00;;;;;;4359647;32;19997;-39
2021/08/25 08:09:28;;;;;;;;;;;33.10;29.90;;;;;;4359792;32;19960;-39
2021/08/25 08:11:55;;;;;;;;;;;33.30;30.00;;;;;;4359772;32;20047;-37
2021/08/25 08:14:21;;;;;;;;;;;33.20;29.10;;;;;;4359735;32;19974;-38
2021/08/25 08:16:51;;;;;;;;;;;33.20;29.10;;;;;;4359303;32;20053;-39
2021/08/25 08:19:20;;;;;;;;;;;33.20;28.90;;;;;;4345845;32;19989;-37
2021/08/25 08:21:47;;;;;;;;;;;33.20;29.00;;;;;;4345593;32;20073;-37
2021/08/25 08:24:13;;;;;;;;;;;33.20;29.20;;;;;;4358963;32;20041;-38
2021/08/25 08:26:41;;;;;;;;;;;33.20;28.90;;;;;;4358481;32;19991;-38
2021/08/25 08:29:07;;;;;;;;;;;33.10;28.70;;;;;;4359292;32;20460;-38
2021/08/25 08:31:33;;;;;;;;;;;33.10;28.50;;;;;;4351699;32;20390;-38
2021/08/25 08:33:59;;;;;;;;;;;33.00;28.70;;;;;;4373969;32;20024;-38
2021/08/25 08:36:26;;;;;;;;;;;32.90;28.70;;;;;;4373561;32;20373;-37
2021/08/25 08:38:52;;;;;;;;;;;32.80;28.60;;;;;;4359957;32;20040;-38
2021/08/25 08:41:18;;;;;;;;;;;32.60;28.50;;;;;;4374246;32;20005;-38
2021/08/25 08:43:46;;;;;;;;;;;32.50;28.70;;;;;;4373832;32;19995;-39
2021/08/25 08:46:16;;;;;;;;;;;32.30;28.60;;;;;;4373913;32;19961;-38
2021/08/25 08:48:43;;;;;;;;;;;32.10;28.70;;;;;;4359903;32;20033;-39
2021/08/25 08:51:10;;;;;;;;;;;32.10;29.00;;;;;;4374029;32;19957;-38
2021/08/25 08:53:36;;;;;;;;;;;32.00;28.90;;;;;;4359697;32;19960;-37
2021/08/25 08:56:02;;;;;;;;;;;32.00;29.20;;;;;;4359936;32;20409;-38
2021/08/25 08:58:29;;;;;;;;;;;32.00;29.20;;;;;;4373362;32;19953;-39
2021/08/25 09:00:55;;;;;;;;;;;32.00;29.10;;;;;;4374094;32;19972;-38
2021/08/25 09:03:28;;;;;;;;;;;31.90;29.20;;;;;;4373493;32;19957;-38
2021/08/25 09:06:01;;;;;;;;;;;31.90;29.20;;;;;;4373586;32;20020;-38
2021/08/25 09:08:46;;;;;;;;;;;32.00;29.00;;;;;;4373455;32;19968;-38
2021/08/25 09:11:17;;;;;;;;;;;31.90;28.90;;;;;;4359556;32;19963;-38
2021/08/25 09:13:49;;;;;;;;;;;31.90;29.10;;;;;;4373199;32;20369;-37
2021/08/25 09:16:28;;;;;;;;;;;32.00;29.20;;;;;;4373446;32;19961;-38
2021/08/25 09:19:07;;;;;;;;;;;32.20;28.80;;;;;;4373926;32;20047;-37
2021/08/25 09:21:40;;;;;;;;;;;32.30;28.70;;;;;;4374165;32;19977;-38
2021/08/25 09:24:06;;;;;;;;;;;32.30;28.30;;;;;;4373889;32;19961;-38
2021/08/25 09:26:34;;;;;;;;;;;32.40;28.20;;;;;;4372975;32;20418;-37
2021/08/25 09:29:19;;;;;;;;;;;32.50;27.90;;;;;;4359666;32;19976;-38
2021/08/25 09:31:46;;;;;;;;;;;32.50;27.50;;;;;;4365168;32;20377;-40
2021/08/25 09:34:29;;;;;;;;;;;32.50;27.50;;;;;;4358356;32;19950;-38
2021/08/25 09:37:08;;;;;;;;;;;32.60;27.40;;;;;;4358231;32;20343;-38
2021/08/25 09:39:55;;;;;;;;;;;32.70;27.20;;;;;;4358312;32;19966;-39
2021/08/25 09:42:22;;;;;;;;;;;32.90;27.00;;;;;;4357668;32;19989;-40
2021/08/25 09:45:08;;;;;;;;;;;33.00;26.50;;;;;;4344515;32;19965;-38
2021/08/25 09:48:09;;;;;;;;;;;33.00;26.40;;;;;;4357306;32;19965;-37
2021/08/25 09:50:36;;;;;;;;;;;33.00;26.30;;;;;;4311604;33;19967;-37
2021/08/25 09:53:02;;;;;;;;;;;32.80;26.30;;;;;;4311806;33;19959;-39
2021/08/25 09:55:33;;;;;;;;;;;32.70;26.50;;;;;;4300048;33;20471;-38
2021/08/25 09:57:59;;;;;;;;;;;32.70;26.40;;;;;;4311584;33;19970;-38
2021/08/25 10:00:26;;;;;;;;;;;32.80;26.30;;;;;;4311792;33;20044;-37
2021/08/25 10:02:52;;;;;;;;;;;32.80;26.30;;;;;;4311723;33;19962;-38
2021/08/25 10:05:28;;;;;;;;;;;32.80;26.40;;;;;;4311627;33;19974;-38
2021/08/25 10:07:54;;;;;;;;;;;32.90;26.30;;;;;;4311663;33;20097;-37
2021/08/25 10:10:20;;;;;;;;;;;33.00;26.60;;;;;;4311397;33;19963;-39
2021/08/25 10:12:51;;;;;;;;;;;33.20;26.70;;;;;;4311294;33;19974;-39
2021/08/25 10:15:45;;;;;;;;;;;33.30;26.60;;;;;;4311735;33;20443;-38
2021/08/25 10:18:23;;;;;;;;;;;33.40;26.20;;;;;;4296129;33;19979;-38
2021/08/25 10:20:49;;;;;;;;;;;33.40;25.90;;;;;;4284723;33;20134;-38
2021/08/25 10:23:15;;;;;;;;;;;33.30;26.40;;;;;;4297119;33;20060;-38
2021/08/25 10:26:09;;;;;;;;;;;33.30;26.40;;;;;;4338903;33;19954;-38
2021/08/25 10:29:12;;;;;;;;;;;33.40;26.20;;;;;;4340630;33;20393;-39
2021/08/25 10:31:51;;;;;;;;;;;33.30;25.90;;;;;;4267442;33;20014;-37
2021/08/25 10:34:21;;;;;;;;;;;33.10;26.00;;;;;;4267900;33;20389;-37
2021/08/25 10:36:48;;;;;;;;;;;33.10;26.00;;;;;;4267910;33;19960;-37
2021/08/25 10:39:30;;;;;;;;;;;33.20;26.00;;;;;;4267728;33;19967;-38
2021/08/25 10:41:59;;;;;;;;;;;33.30;25.70;;;;;;4267768;33;20159;-39
2021/08/25 10:44:37;;;;;;;;;;;33.50;25.80;;;;;;4268013;33;19991;-38
2021/08/25 10:47:16;;;;;;;;;;;33.60;25.80;;;;;;4267826;33;20067;-37
2021/08/25 10:49:48;;;;;;;;;;;33.80;25.70;;;;;;4277824;33;19956;-38
2021/08/25 10:52:18;;;;;;;;;;;34.00;25.50;;;;;;4282063;33;19967;-38
2021/08/25 10:54:48;;;;;;;;;;;33.90;25.30;;;;;;4282094;33;20433;-38
2021/08/25 10:57:16;;;;;;;;;;;33.70;25.20;;;;;;4282136;33;19975;-39
2021/08/25 10:59:43;;;;;;;;;;;33.70;25.10;;;;;;4284028;33;19967;-38
2021/08/25 11:02:10;;;;;;;;;;;33.70;25.10;;;;;;4272267;33;20466;-38
2021/08/25 11:04:36;;;;;;;;;;;33.70;24.90;;;;;;4289505;33;20076;-41
2021/08/25 11:07:08;;;;;;;;;;;33.50;24.80;;;;;;4345656;32;19950;-37
2021/08/25 11:09:35;;;;;;;;;;;33.40;24.60;;;;;;4345448;33;19981;-39
2021/08/25 11:12:08;;;;;;;;;;;33.40;25.10;;;;;;4345077;32;20499;-39
2021/08/25 11:14:35;;;;;;;;;;;33.40;24.60;;;;;;4345617;32;19972;-37
2021/08/25 11:17:10;;;;;;;;;;;33.30;24.50;;;;;;4344939;32;20343;-38
2021/08/25 11:19:40;;;;;;;;;;;33.30;24.40;;;;;;4355786;32;20514;-37
2021/08/25 11:22:09;;;;;;;;;;;33.20;24.80;;;;;;4360261;32;19954;-38
2021/08/25 11:24:43;;;;;;;;;;;33.20;24.90;;;;;;4360378;32;19954;-37
2021/08/25 11:27:25;;;;;;;;;;;33.10;24.70;;;;;;4359700;32;20013;-38
2021/08/25 11:30:05;;;;;;;;;;;33.20;24.60;;;;;;4359462;32;20519;-38
2021/08/25 11:32:31;;;;;;;;;;;33.40;24.80;;;;;;4359916;32;19961;-38
2021/08/25 11:34:57;;;;;;;;;;;33.50;24.80;;;;;;4360034;32;19957;-39
2021/08/25 11:37:23;;;;;;;;;;;33.70;24.60;;;;;;4358011;32;19957;-37
2021/08/25 11:39:57;;;;;;;;;;;33.40;24.50;;;;;;4359398;32;20375;-39
2021/08/25 11:42:34;;;;;;;;;;;33.20;24.60;;;;;;4357673;32;20351;-38
2021/08/25 11:45:01;;;;;;;;;;;33.20;25.00;;;;;;4359448;32;19970;-38
2021/08/25 11:47:27;;;;;;;;;;;33.30;25.10;;;;;;4359609;32;20074;-38
2021/08/25 11:49:55;;;;;;;;;;;33.40;25.20;;;;;;4359704;32;20410;-39
2021/08/25 11:52:32;;;;;;;;;;;33.40;25.00;;;;;;4358272;32;19969;-37
2021/08/25 11:55:00;;;;;;;;;;;33.30;25.00;;;;;;4358512;32;19956;-38
2021/08/25 11:57:46;;;;;;;;;;;33.40;24.90;;;;;;4357962;32;19954;-38
2021/08/25 12:00:14;;;;;;;;;;;33.40;24.70;;;;;;4359402;32;19969;-37
2021/08/25 12:03:01;;;;;;;;;;;33.40;25.40;;;;;;4357749;32;20373;-39
2021/08/25 12:05:32;;;;;;;;;;;33.30;24.80;;;;;;4359528;32;20119;-38
2021/08/25 12:08:09;;;;;;;;;;;33.10;25.00;;;;;;4359220;32;20059;-37
2021/08/25 12:10:46;;;;;;;;;;;33.00;24.80;;;;;;4358970;32;20418;-38
2021/08/25 12:13:32;;;;;;;;;;;33.00;25.20;;;;;;4357910;32;19973;-38
2021/08/25 12:15:58;;;;;;;;;;;33.00;25.30;;;;;;4358263;32;19976;-38
2021/08/25 12:18:26;;;;;;;;;;;33.10;25.50;;;;;;4362113;32;19984;-38
2021/08/25 12:20:54;;;;;;;;;;;33.10;25.50;;;;;;4374568;32;20443;-37
2021/08/25 12:23:27;;;;;;;;;;;33.20;25.30;;;;;;4374158;32;19978;-37
2021/08/25 12:25:54;;;;;;;;;;;33.30;25.40;;;;;;4373952;32;20450;-43
2021/08/25 12:28:32;;;;;;;;;;;33.40;25.30;;;;;;4374380;32;19965;-38
2021/08/25 12:31:21;;;;;;;;;;;33.30;24.70;;;;;;4370891;32;19961;-38
2021/08/25 12:33:54;;;;;;;;;;;33.20;25.00;;;;;;4345237;32;19966;-39
2021/08/25 12:36:30;;;;;;;;;;;33.30;25.20;;;;;;4359101;32;20335;-39
2021/08/25 12:39:05;;;;;;;;;;;33.20;25.80;;;;;;4358780;32;20432;-39
2021/08/25 12:41:32;;;;;;;;;;;33.30;25.20;;;;;;4358732;32;20793;-38
2021/08/25 12:43:58;;;;;;;;;;;33.40;25.00;;;;;;4358839;32;20452;-38
2021/08/25 12:46:25;;;;;;;;;;;33.30;25.00;;;;;;4358994;32;20062;-38
2021/08/25 12:48:51;;;;;;;;;;;33.30;25.00;;;;;;4359080;32;19996;-38
2021/08/25 12:51:18;;;;;;;;;;;33.30;25.00;;;;;;4358917;32;19977;-38
2021/08/25 12:53:48;;;;;;;;;;;33.20;24.90;;;;;;4358979;32;19961;-38
2021/08/25 12:56:15;;;;;;;;;;;33.20;25.00;;;;;;4359018;32;19992;-38
2021/08/25 12:58:41;;;;;;;;;;;33.10;24.90;;;;;;4358559;32;20410;-39
2021/08/25 13:01:07;;;;;;;;;;;33.00;24.80;;;;;;4358760;32;19971;-38
2021/08/25 13:03:34;;;;;;;;;;;32.90;25.10;;;;;;4358683;32;20039;-38
2021/08/25 13:06:00;;;;;;;;;;;32.90;25.30;;;;;;4358702;32;20045;-37
2021/08/25 13:08:26;;;;;;;;;;;32.80;25.30;;;;;;4358745;32;19977;-38
2021/08/25 13:10:52;;;;;;;;;;;32.70;25.20;;;;;;4358593;32;19954;-39
2021/08/25 13:13:18;;;;;;;;;;;32.50;25.80;;;;;;4358577;32;19962;-38
2021/08/25 13:15:45;;;;;;;;;;;32.50;25.50;;;;;;4358237;32;20062;-40
2021/08/25 13:18:11;;;;;;;;;;;32.40;25.60;;;;;;4358062;32;20043;-38
2021/08/25 13:20:37;;;;;;;;;;;32.30;25.70;;;;;;4358103;32;19981;-38
2021/08/25 13:23:04;;;;;;;;;;;32.20;25.70;;;;;;4357796;32;19961;-38
2021/08/25 13:25:30;;;;;;;;;;;32.10;25.90;;;;;;4358588;32;19984;-38
2021/08/25 13:27:56;;;;;;;;;;;32.00;26.00;;;;;;4358222;32;20032;-38
2021/08/25 13:30:23;;;;;;;;;;;31.90;26.10;;;;;;4358385;32;19962;-38
2021/08/25 13:32:49;;;;;;;;;;;31.80;26.30;;;;;;4358519;32;19954;-37
2021/08/25 13:35:15;;;;;;;;;;;31.80;26.40;;;;;;4358151;32;20444;-39
2021/08/25 13:37:41;;;;;;;;;;;31.80;26.40;;;;;;4358468;32;19957;-38
2021/08/25 13:40:08;;;;;;;;;;;31.70;26.40;;;;;;4358110;32;20045;-37
2021/08/25 13:42:34;;;;;;;;;;;31.60;26.50;;;;;;4358456;32;20424;-38
2021/08/25 13:45:01;;;;;;;;;;;31.60;26.70;;;;;;4356524;32;19970;-38
2021/08/25 13:47:27;;;;;;;;;;;31.50;26.60;;;;;;4358400;32;19950;-38
2021/08/25 13:49:53;;;;;;;;;;;31.50;26.70;;;;;;4358419;32;20085;-39
2021/08/25 13:52:19;;;;;;;;;;;31.60;26.60;;;;;;4357782;32;19962;-39
2021/08/25 13:54:46;;;;;;;;;;;31.70;26.60;;;;;;4358509;32;19969;-39
2021/08/25 13:57:12;;;;;;;;;;;31.70;26.60;;;;;;4358577;32;20440;-38
2021/08/25 13:59:38;;;;;;;;;;;31.80;26.60;;;;;;4357714;32;20511;-38
2021/08/25 14:02:04;;;;;;;;;;;31.80;26.60;;;;;;4356546;32;19997;-38
2021/08/25 14:04:30;;;;;;;;;;;31.80;26.70;;;;;;4358406;32;20481;-37
2021/08/25 14:06:56;;;;;;;;;;;31.80;26.70;;;;;;4358470;32;19987;-38
2021/08/25 14:09:23;;;;;;;;;;;31.80;26.70;;;;;;4358156;32;20358;-38
2021/08/25 14:11:49;;;;;;;;;;;31.80;26.70;;;;;;4357541;32;19954;-40
2021/08/25 14:14:15;;;;;;;;;;;31.80;26.80;;;;;;4357894;32;20450;-39
2021/08/25 14:16:42;;;;;;;;;;;31.80;26.90;;;;;;4357820;32;20336;-38
2021/08/25 14:19:08;;;;;;;;;;;31.80;26.90;;;;;;4365440;32;20614;-39
2021/08/25 14:21:34;;;;;;;;;;;31.70;26.90;;;;;;4373081;32;19961;-37